JS1SZZ-13 Weather Reports


Display with metric or nautical units.
time (UTC)temp
F
wind
direction
speed
MPH
gust
MPH
rain 1hr
in
rain 24hr
in
rain mn
in
humidity
%
barometer
mb
20260509161828 38 0 0.0 0.0 0.00 0.00 0.00 88 1016.8
20260509160328 38 0 0.0 0.0 0.00 0.00 0.00 87 1016.7
20260509154829 39 0 0.0 0.0 0.00 0.00 0.00 87 1016.9
20260509153328 39 0 0.0 0.0 0.00 0.00 0.00 87 1016.9
20260509151828 39 0 0.0 0.0 0.00 0.00 0.00 86 1016.8
20260509150328 40 0 0.0 0.0 0.00 0.00 0.00 85 1016.7
20260509144827 40 0 0.0 0.0 0.00 0.00 0.00 84 1016.8
20260509143327 40 0 0.0 0.0 0.00 0.00 0.00 84 1016.7
20260509141828 40 0 0.0 0.0 0.00 0.00 0.00 82 1016.7
20260509140328 40 0 0.0 0.0 0.00 0.00 0.00 82 1016.4
20260509134827 40 0 0.0 0.0 0.00 0.00 0.00 80 1016.5
20260509133329 41 0 0.0 0.0 0.00 0.00 0.00 79 1016.5
20260509131828 41 0 0.0 0.0 0.00 0.00 0.00 78 1016.4
20260509130327 42 0 0.0 0.0 0.00 0.00 0.00 78 1016.3
20260509124828 42 0 0.0 0.0 0.00 0.00 0.00 76 1016.1
20260509123327 42 0 0.0 0.0 0.00 0.00 0.00 73 1016.3
20260509121827 43 0 0.0 0.0 0.00 0.00 0.00 73 1016.1
20260509120329 44 0 0.0 0.0 0.00 0.00 0.00 71 1015.9
20260509114828 44 0 0.0 0.0 0.00 0.00 0.00 71 1015.6
20260509113327 45 0 0.0 0.0 0.00 0.00 0.00 68 1015.5
20260509111829 46 0 0.0 0.0 0.00 0.00 0.00 64 1015.2
20260509110328 46 0 0.0 0.0 0.00 0.00 0.00 62 1015.0
20260509104827 47 0 0.0 0.0 0.00 0.00 0.00 57 1014.6
20260509103329 49 0 0.0 0.0 0.00 0.00 0.00 57 1014.5
20260509101828 50 0 0.0 0.0 0.00 0.00 0.00 52 1014.0
20260509100327 51 0 0.0 0.0 0.00 0.01 0.00 49 1013.7
20260509094828 53 0 0.0 0.0 0.00 0.02 0.00 46 1013.8
20260509093328 55 0 0.0 0.0 0.00 0.02 0.00 41 1013.4
20260509091827 57 0 0.0 0.0 0.00 0.02 0.00 35 1013.1
20260509090329 59 0 0.0 0.0 0.00 0.02 0.00 30 1012.9
20260509084828 61 0 0.0 0.0 0.00 0.02 0.00 25 1012.8
20260509081828 63 0 0.0 0.0 0.00 0.02 0.00 22 1012.7
20260509080327 64 0 0.0 0.0 0.00 0.02 0.00 20 1012.6
20260509074828 65 0 0.0 0.0 0.00 0.02 0.00 20 1012.4
20260509073327 65 0 0.0 0.0 0.00 0.02 0.00 20 1012.1
20260509071827 66 0 0.0 0.0 0.00 0.02 0.00 20 1011.8
20260509070329 65 0 0.0 0.0 0.00 0.02 0.00 21 1011.4
20260509064828 65 0 0.0 0.0 0.00 0.02 0.00 21 1011.6
20260509063327 66 0 0.0 0.0 0.00 0.02 0.00 20 1011.4
20260509061828 65 0 0.0 0.0 0.00 0.02 0.00 19 1011.4
20260509061217 65 0 0.0 0.0 0.00 0.02 0.00 20 1011.3
20260509060646 66 0 0.0 0.0 0.00 0.02 0.00 19 1011.2
20260509055112 66 0 0.0 0.0 0.00 0.02 0.00 20 1011.2
20260509053613 66 0 0.0 0.0 0.00 0.02 0.00 20 1011.2
20260509052113 66 0 0.0 0.0 0.00 0.02 0.00 19 1011.1
20260509050613 66 0 0.0 0.0 0.00 0.02 0.00 19 1010.7
20260509045112 66 0 0.0 0.0 0.00 0.02 0.00 19 1010.8
20260509043612 66 0 0.0 0.0 0.00 0.02 0.00 20 1011.0
20260509042113 66 0 0.0 0.0 0.00 0.02 0.00 22 1011.0
20260509040613 66 0 0.0 0.0 0.00 0.02 0.00 21 1010.8
20260509035113 66 0 0.0 0.0 0.00 0.02 0.00 21 1011.4
20260509033613 66 0 0.0 0.0 0.00 0.02 0.00 21 1011.0
20260509032112 65 0 0.0 0.0 0.00 0.02 0.00 22 1011.0
20260509030612 65 0 0.0 0.0 0.00 0.02 0.00 27 1010.9
20260509025112 64 0 0.0 0.0 0.00 0.02 0.00 30 1011.0
20260509023612 64 0 0.0 0.0 0.00 0.02 0.00 30 1011.3
20260509022113 64 0 0.0 0.0 0.00 0.02 0.00 30 1011.2
20260509020613 61 0 0.0 0.0 0.00 0.02 0.00 30 1011.5
20260509015112 60 0 0.0 0.0 0.00 0.02 0.00 31 1011.4
20260509013613 60 0 0.0 0.0 0.00 0.02 0.00 32 1011.4
20260509012112 61 0 0.0 0.0 0.00 0.02 0.00 38 1011.3
20260509010613 59 0 0.0 0.0 0.00 0.02 0.00 38 1011.5
20260509005112 61 0 0.0 0.0 0.00 0.02 0.00 39 1011.3
20260509003613 61 0 0.0 0.0 0.00 0.02 0.00 39 1010.9
20260509002113 60 0 0.0 0.0 0.00 0.02 0.00 41 1010.9
20260509000613 60 0 0.0 0.0 0.00 0.02 0.00 38 1010.5
20260508235112 60 0 0.0 0.0 0.00 0.02 0.00 39 1010.5
20260508233614 59 0 0.0 0.0 0.00 0.02 0.00 38 1010.5
20260508232113 61 0 0.0 0.0 0.00 0.02 0.00 36 1010.0
20260508230613 60 0 0.0 0.0 0.00 0.02 0.00 44 1009.4
20260508225112 61 0 0.0 0.0 0.00 0.02 0.00 44 1008.7
20260508223613 58 0 0.0 0.0 0.00 0.02 0.00 48 1008.7
20260508222113 59 0 0.0 0.0 0.00 0.02 0.00 44 1008.2
20260508220614 56 0 0.0 0.0 0.00 0.02 0.00 53 1007.8
20260508215113 55 0 0.0 0.0 0.00 0.02 0.00 57 1007.8
20260508213612 53 0 0.0 0.0 0.00 0.02 0.00 62 1007.8
20260508212113 51 0 0.0 0.0 0.00 0.02 0.00 68 1007.6
20260508210613 49 0 0.0 0.0 0.00 0.02 0.00 76 1007.0
20260508205112 45 0 0.0 0.0 0.00 0.02 0.00 89 1007.1
20260508203613 40 0 0.0 0.0 0.00 0.02 0.00 91 1006.5
20260508202113 40 0 0.0 0.0 0.00 0.02 0.00 92 1006.2
20260508200614 40 0 0.0 0.0 0.00 0.02 0.00 92 1006.0
20260508195113 40 0 0.0 0.0 0.00 0.02 0.00 91 1006.0
20260508193612 40 0 0.0 0.0 0.00 0.02 0.00 91 1006.1
20260508192114 40 0 0.0 0.0 0.00 0.02 0.00 91 1005.8
20260508190612 41 0 0.0 0.0 0.00 0.02 0.00 91 1005.7
20260508185113 41 0 0.0 0.0 0.00 0.02 0.00 90 1005.6
20260508183613 42 0 0.0 0.0 0.00 0.02 0.00 89 1005.6
20260508182112 43 0 0.0 0.0 0.00 0.02 0.00 89 1005.6
20260508180613 43 0 0.0 0.0 0.00 0.02 0.00 89 1005.5
20260508175113 44 0 0.0 0.0 0.00 0.02 0.00 89 1005.3
20260508173612 44 0 0.0 0.0 0.00 0.02 0.00 89 1005.4
20260508172113 45 0 0.0 0.0 0.00 0.02 0.00 90 1005.4
20260508170613 46 0 0.0 0.0 0.00 0.02 0.00 90 1005.5
20260508165113 47 0 0.0 0.0 0.00 0.02 0.00 90 1005.6
20260508163613 48 0 0.0 0.0 0.00 0.02 0.00 89 1005.6
20260508162113 49 0 0.0 0.0 0.00 0.02 0.00 89 1005.6